createdAt,value
2018-06-02T00:02:18.177Z,86.33
2018-06-02T00:04:45.764Z,86.85
2018-06-02T00:07:13.302Z,86.66
2018-06-02T00:09:40.850Z,87.27
2018-06-02T00:12:08.434Z,87.75
2018-06-02T00:14:35.985Z,87.42
2018-06-02T00:17:03.533Z,83.96
2018-06-02T00:19:31.106Z,85.72
2018-06-02T00:21:58.654Z,86.41
2018-06-02T00:24:26.198Z,87.10
2018-06-02T00:26:53.774Z,88.06
2018-06-02T00:29:21.319Z,88.26
2018-06-02T00:31:48.893Z,88.36
2018-06-02T00:34:16.465Z,88.37
2018-06-02T00:36:44.015Z,88.27
2018-06-02T00:39:11.596Z,88.06
2018-06-02T00:41:39.170Z,87.31
2018-06-02T00:44:06.720Z,87.04
2018-06-02T00:46:34.262Z,87.59
2018-06-02T00:49:01.835Z,89.95
2018-06-02T00:51:29.387Z,90.04
2018-06-02T00:53:56.942Z,90.93
2018-06-02T00:56:24.522Z,89.09
2018-06-02T00:58:52.061Z,89.08
2018-06-02T01:01:19.614Z,90.86
2018-06-02T01:03:47.199Z,91.73
2018-06-02T01:06:14.742Z,91.12
2018-06-02T01:08:42.292Z,91.56
2018-06-02T01:11:09.861Z,92.54
2018-06-02T01:13:37.401Z,93.16
2018-06-02T01:16:04.946Z,92.99
2018-06-02T01:18:32.521Z,93.22
2018-06-02T01:21:00.065Z,92.48
2018-06-02T01:23:27.609Z,92.88
2018-06-02T01:25:55.187Z,93.39
2018-06-02T01:28:23.696Z,93.35
2018-06-02T01:30:51.310Z,93.57
2018-06-02T01:33:18.886Z,93.83
2018-06-02T01:35:46.439Z,94.00
2018-06-02T01:38:13.995Z,94.09
2018-06-02T01:40:41.579Z,94.25
2018-06-02T01:43:09.125Z,95.24
2018-06-02T01:45:36.679Z,95.43
2018-06-02T01:48:04.265Z,95.29
2018-06-02T01:50:31.819Z,95.51
2018-06-02T01:52:59.370Z,95.91
2018-06-02T01:55:26.951Z,96.26
2018-06-02T01:57:54.545Z,96.58
2018-06-02T02:00:22.090Z,96.31
2018-06-02T02:02:49.682Z,95.92
2018-06-02T02:05:17.233Z,94.45
2018-06-02T02:07:44.770Z,93.22
2018-06-02T02:10:12.353Z,92.86
2018-06-02T02:12:39.899Z,93.42
2018-06-02T02:15:07.449Z,93.29
2018-06-02T02:17:35.034Z,93.39
2018-06-02T02:20:02.594Z,93.15
2018-06-02T02:22:30.148Z,93.14
2018-06-02T02:24:57.796Z,93.43
2018-06-02T02:27:25.369Z,93.94
2018-06-02T02:29:52.919Z,94.04
2018-06-02T02:32:20.501Z,93.89
2018-06-02T02:34:48.049Z,93.45
2018-06-02T02:37:15.599Z,93.76
2018-06-02T02:39:43.177Z,93.86
2018-06-02T02:42:10.731Z,94.02
2018-06-02T02:44:38.277Z,92.20
2018-06-02T02:47:05.846Z,91.37
2018-06-02T02:49:33.395Z,89.91
2018-06-02T02:52:00.936Z,89.42
2018-06-02T02:54:28.525Z,89.73
2018-06-02T02:56:56.186Z,90.47
2018-06-02T02:59:23.736Z,90.61
2018-06-02T03:01:51.311Z,90.14
2018-06-02T03:04:18.857Z,90.09
2018-06-02T03:06:46.413Z,88.78
2018-06-02T03:09:13.986Z,88.86
2018-06-02T03:11:41.537Z,88.83
2018-06-02T03:14:09.093Z,88.41
2018-06-02T03:16:36.667Z,88.64
2018-06-02T03:19:04.212Z,88.83
2018-06-02T03:21:31.762Z,88.37
2018-06-02T03:23:59.363Z,87.72
2018-06-02T03:26:26.911Z,87.19
2018-06-02T03:28:54.462Z,87.35
2018-06-02T03:31:22.034Z,85.78
2018-06-02T03:33:49.580Z,82.48
2018-06-02T03:36:17.122Z,76.24
2018-06-02T03:38:44.702Z,70.58
2018-06-02T03:41:12.250Z,65.19
2018-06-02T03:43:39.798Z,64.00
2018-06-02T03:46:07.375Z,61.19
2018-06-02T03:48:34.918Z,58.48
2018-06-02T03:51:02.467Z,56.46
2018-06-02T03:53:30.042Z,54.03
2018-06-02T03:55:57.582Z,50.31
2018-06-02T03:58:25.130Z,47.40
2018-06-02T04:00:52.701Z,45.14
2018-06-02T04:03:20.242Z,43.63
2018-06-02T04:05:47.793Z,42.00
2018-06-02T04:08:15.365Z,41.90
2018-06-02T04:10:42.945Z,43.18
2018-06-02T04:13:10.489Z,42.95
2018-06-02T04:15:38.188Z,41.92
2018-06-02T04:18:05.737Z,40.23
2018-06-02T04:20:33.290Z,39.22
2018-06-02T04:23:00.863Z,39.37
2018-06-02T04:25:28.407Z,40.69
2018-06-02T04:27:55.961Z,39.27
2018-06-02T04:30:23.668Z,38.30
2018-06-02T04:32:51.217Z,35.88
2018-06-02T04:35:18.768Z,34.63
2018-06-02T04:37:46.342Z,32.21
2018-06-02T04:40:13.890Z,32.77
2018-06-02T04:42:41.445Z,32.81
2018-06-02T04:45:09.014Z,34.32
2018-06-02T04:47:36.568Z,33.44
2018-06-02T04:50:04.128Z,29.01
2018-06-02T04:52:31.702Z,29.71
2018-06-02T04:54:59.249Z,28.61
2018-06-02T04:57:26.800Z,28.61
2018-06-02T04:59:54.545Z,27.44
2018-06-02T05:02:22.103Z,27.51
2018-06-02T05:04:49.666Z,29.03
2018-06-02T05:07:17.258Z,29.50
2018-06-02T05:09:44.797Z,29.08
2018-06-02T05:12:12.376Z,28.45
2018-06-02T05:14:39.942Z,28.97
2018-06-02T05:17:07.482Z,29.20
2018-06-02T05:19:35.021Z,29.41
2018-06-02T05:22:02.597Z,28.83
2018-06-02T05:24:30.173Z,30.13
2018-06-02T05:26:57.725Z,31.16
2018-06-02T05:29:25.371Z,31.76
2018-06-02T05:31:52.891Z,30.05
2018-06-02T05:34:20.442Z,32.17
2018-06-02T05:36:48.021Z,30.75
2018-06-02T05:39:15.574Z,29.05
2018-06-02T05:41:43.130Z,27.89
2018-06-02T05:44:10.697Z,26.39
2018-06-02T05:46:38.265Z,26.24
2018-06-02T05:49:05.831Z,26.49
2018-06-02T05:51:33.406Z,25.11
2018-06-02T05:54:00.942Z,25.02
2018-06-02T05:56:28.481Z,24.78
2018-06-02T05:58:56.041Z,25.70
2018-06-02T06:01:23.592Z,25.33
2018-06-02T06:03:51.142Z,25.86
2018-06-02T06:06:18.715Z,24.52
2018-06-02T06:08:46.263Z,24.15
2018-06-02T06:11:14.638Z,24.58
2018-06-02T06:13:42.225Z,24.66
2018-06-02T06:16:09.816Z,25.73
2018-06-02T06:18:37.375Z,24.57
2018-06-02T06:21:04.980Z,24.16
2018-06-02T06:23:32.528Z,24.38
2018-06-02T06:26:00.083Z,24.32
2018-06-02T06:28:27.678Z,23.34
2018-06-02T06:30:55.245Z,23.11
2018-06-02T06:33:22.788Z,24.95
2018-06-02T06:35:50.365Z,23.78
2018-06-02T06:38:17.913Z,24.95
2018-06-02T06:40:45.460Z,22.39
2018-06-02T06:43:13.034Z,23.62
2018-06-02T06:45:40.586Z,22.69
2018-06-02T06:48:08.243Z,22.04
2018-06-02T06:50:35.900Z,19.35
2018-06-02T06:53:03.423Z,19.02
2018-06-02T06:55:30.974Z,18.45
2018-06-02T06:57:58.546Z,19.67
2018-06-02T07:00:26.171Z,19.91
2018-06-02T07:02:53.726Z,20.04
2018-06-02T07:05:21.306Z,20.85
2018-06-02T07:07:48.850Z,20.65
2018-06-02T07:10:16.397Z,20.37
2018-06-02T07:12:44.011Z,21.01
2018-06-02T07:15:11.559Z,20.84
2018-06-02T07:17:39.107Z,20.46
2018-06-02T07:20:06.678Z,20.92
2018-06-02T07:22:34.232Z,18.24
2018-06-02T07:25:01.781Z,17.90
2018-06-02T07:27:29.365Z,18.13
2018-06-02T07:29:56.914Z,18.45
2018-06-02T07:32:24.454Z,18.84
2018-06-02T07:34:52.035Z,21.35
2018-06-02T07:37:19.582Z,19.67
2018-06-02T07:39:47.138Z,21.62
2018-06-02T07:42:14.761Z,23.78
2018-06-02T07:44:42.301Z,22.89
2018-06-02T07:47:09.850Z,21.56
2018-06-02T07:49:37.430Z,22.85
2018-06-02T07:52:04.975Z,23.84
2018-06-02T07:54:32.516Z,23.74
2018-06-02T07:57:00.132Z,23.53
2018-06-02T07:59:27.668Z,23.28
2018-06-02T08:01:55.210Z,23.27
2018-06-02T08:04:22.792Z,21.43
2018-06-02T08:06:50.332Z,21.36
2018-06-02T08:09:17.883Z,21.27
2018-06-02T08:11:45.459Z,22.38
2018-06-02T08:14:13.010Z,22.70
2018-06-02T08:16:40.564Z,24.61
2018-06-02T08:19:08.141Z,24.20
2018-06-02T08:21:35.682Z,24.71
2018-06-02T08:24:03.236Z,25.12
2018-06-02T08:26:30.816Z,25.75
2018-06-02T08:28:58.372Z,24.83
2018-06-02T08:31:25.930Z,24.97
2018-06-02T08:33:53.496Z,25.11
2018-06-02T08:36:21.038Z,24.50
2018-06-02T08:38:48.578Z,23.93
2018-06-02T08:41:16.149Z,23.91
2018-06-02T08:43:43.692Z,24.56
2018-06-02T08:46:11.234Z,25.63
2018-06-02T08:48:38.807Z,24.93
2018-06-02T08:51:06.362Z,25.07
2018-06-02T08:53:33.916Z,25.03
2018-06-02T08:56:01.477Z,25.32
2018-06-02T08:58:29.031Z,24.55
2018-06-02T09:00:56.667Z,25.76
2018-06-02T09:03:24.235Z,25.12
2018-06-02T09:05:51.770Z,24.15
2018-06-02T09:08:20.079Z,23.95
2018-06-02T09:10:50.323Z,24.48
2018-06-02T09:13:18.169Z,24.75
2018-06-02T09:15:45.826Z,25.07
2018-06-02T09:18:13.639Z,26.26
2018-06-02T09:20:42.921Z,25.84
2018-06-02T09:23:12.561Z,24.85
2018-06-02T09:25:43.608Z,23.74
2018-06-02T09:28:14.187Z,23.83
2018-06-02T09:30:45.968Z,24.80
2018-06-02T09:33:15.595Z,26.70
2018-06-02T09:35:43.391Z,24.43
2018-06-02T09:38:10.978Z,24.30
2018-06-02T09:40:38.526Z,23.86
2018-06-02T09:43:06.070Z,23.43
2018-06-02T09:45:33.643Z,22.33
2018-06-02T09:48:01.192Z,22.65
2018-06-02T09:50:28.737Z,23.46
2018-06-02T09:52:56.310Z,21.81
2018-06-02T09:55:23.854Z,22.49
2018-06-02T09:57:51.408Z,22.28
2018-06-02T10:00:25.684Z,22.37
2018-06-02T10:02:53.259Z,22.21
2018-06-02T10:05:20.812Z,22.73
2018-06-02T10:07:48.396Z,24.40
2018-06-02T10:10:16.007Z,24.13
2018-06-02T10:12:43.565Z,24.08
2018-06-02T10:15:11.252Z,22.99
2018-06-02T10:17:38.805Z,22.38
2018-06-02T10:20:06.338Z,22.76
2018-06-02T10:22:33.915Z,22.04
2018-06-02T10:25:01.464Z,21.10
2018-06-02T10:27:29.007Z,20.48
2018-06-02T10:29:56.582Z,21.13
2018-06-02T10:32:24.114Z,20.42
2018-06-02T10:34:51.705Z,19.46
2018-06-02T10:37:19.298Z,19.29
2018-06-02T10:39:46.868Z,19.32
2018-06-02T10:42:14.427Z,21.45
2018-06-02T10:44:42.047Z,20.63
2018-06-02T10:47:09.555Z,21.31
2018-06-02T10:49:37.098Z,21.65
2018-06-02T10:52:04.700Z,22.07
2018-06-02T10:54:32.253Z,20.81
2018-06-02T10:56:59.814Z,20.90
2018-06-02T10:59:27.384Z,21.67
2018-06-02T11:01:54.921Z,21.59
2018-06-02T11:04:22.468Z,19.92
2018-06-02T11:06:50.038Z,20.55
2018-06-02T11:09:17.586Z,21.28
2018-06-02T11:11:45.146Z,21.64
2018-06-02T11:14:12.732Z,21.40
2018-06-02T11:16:40.280Z,22.30
2018-06-02T11:19:07.827Z,21.33
2018-06-02T11:21:35.410Z,21.44
2018-06-02T11:24:02.951Z,19.76
2018-06-02T11:26:30.486Z,19.95
2018-06-02T11:28:58.176Z,20.07
2018-06-02T11:31:25.729Z,19.31
2018-06-02T11:33:53.270Z,20.64
2018-06-02T11:36:20.851Z,20.52
2018-06-02T11:38:48.403Z,21.60
2018-06-02T11:41:15.947Z,21.27
2018-06-02T11:43:43.519Z,20.91
2018-06-02T11:46:11.232Z,20.56
2018-06-02T11:48:38.770Z,20.67
2018-06-02T11:51:06.348Z,19.83
2018-06-02T11:53:33.886Z,20.24
2018-06-02T11:56:01.426Z,20.25
2018-06-02T11:58:29.054Z,19.02
2018-06-02T12:00:56.613Z,19.77
2018-06-02T12:03:24.174Z,20.60
2018-06-02T12:05:51.755Z,22.36
2018-06-02T12:08:19.299Z,22.63
2018-06-02T12:10:46.846Z,22.92
2018-06-02T12:13:14.418Z,23.15
2018-06-02T12:15:41.957Z,21.64
2018-06-02T12:18:09.514Z,21.82
2018-06-02T12:20:37.128Z,19.67
2018-06-02T12:23:04.661Z,18.70
2018-06-02T12:25:32.203Z,19.69
2018-06-02T12:27:59.803Z,22.00
2018-06-02T12:30:27.360Z,23.83
2018-06-02T12:32:54.902Z,24.84
2018-06-02T12:35:22.479Z,26.57
2018-06-02T12:37:50.030Z,26.07
2018-06-02T12:40:17.648Z,27.83
2018-06-02T12:42:45.195Z,28.80
2018-06-02T12:45:12.761Z,27.96
2018-06-02T12:47:40.363Z,27.93
2018-06-02T12:50:07.948Z,29.17
2018-06-02T12:52:35.550Z,28.95
2018-06-02T12:55:03.084Z,28.35
2018-06-02T12:57:30.682Z,28.29
2018-06-02T12:59:58.223Z,28.43
2018-06-02T13:02:25.776Z,28.39
2018-06-02T13:04:53.370Z,29.83
2018-06-02T13:07:20.915Z,29.50
2018-06-02T13:09:48.463Z,29.62
2018-06-02T13:12:16.034Z,29.56
2018-06-02T13:14:43.655Z,29.35
2018-06-02T13:17:11.146Z,29.08
2018-06-02T13:19:38.720Z,29.25
2018-06-02T13:22:06.260Z,28.96
2018-06-02T13:24:33.806Z,29.29
2018-06-02T13:27:01.378Z,29.66
2018-06-02T13:29:28.923Z,29.94
2018-06-02T13:31:56.466Z,30.60
2018-06-02T13:34:24.054Z,30.85
2018-06-02T13:36:54.082Z,29.09
2018-06-02T13:39:21.617Z,29.63
2018-06-02T13:41:49.199Z,29.54
2018-06-02T13:44:16.749Z,30.90
2018-06-02T13:46:44.298Z,30.10
2018-06-02T13:49:11.870Z,29.76
2018-06-02T13:51:39.409Z,30.61
2018-06-02T13:54:06.959Z,29.89
2018-06-02T13:56:34.590Z,30.69
2018-06-02T13:59:02.135Z,30.60
2018-06-02T14:01:29.675Z,30.42
2018-06-02T14:03:57.239Z,30.53
2018-06-02T14:06:24.789Z,30.43
2018-06-02T14:08:52.339Z,30.79
2018-06-02T14:11:19.951Z,31.40
2018-06-02T14:13:47.502Z,31.14
2018-06-02T14:16:15.048Z,30.59
2018-06-02T14:18:42.627Z,31.50
2018-06-02T14:21:10.165Z,30.75
2018-06-02T14:23:37.748Z,30.41
2018-06-02T14:26:05.331Z,31.29
2018-06-02T14:28:32.891Z,30.26
2018-06-02T14:31:00.433Z,29.94
2018-06-02T14:33:28.018Z,30.02
2018-06-02T14:35:55.562Z,30.06
2018-06-02T14:38:23.124Z,30.38
2018-06-02T14:40:50.738Z,30.58
2018-06-02T14:43:18.282Z,31.54
2018-06-02T14:45:45.817Z,31.58
2018-06-02T14:48:13.462Z,31.69
2018-06-02T14:50:41.033Z,31.90
2018-06-02T14:53:08.578Z,31.95
2018-06-02T14:55:36.166Z,31.83
2018-06-02T14:58:03.717Z,32.68
2018-06-02T15:00:31.278Z,32.59
2018-06-02T15:02:58.918Z,31.64
2018-06-02T15:05:26.458Z,32.58
2018-06-02T15:07:54.002Z,32.32
2018-06-02T15:10:21.582Z,32.32
2018-06-02T15:12:49.125Z,32.48
2018-06-02T15:15:16.669Z,32.63
2018-06-02T15:17:44.301Z,33.69
2018-06-02T15:20:11.824Z,32.39
2018-06-02T15:22:39.373Z,32.21
2018-06-02T15:25:06.960Z,32.51
2018-06-02T15:27:34.520Z,33.57
2018-06-02T15:30:02.086Z,33.18
2018-06-02T15:32:29.699Z,33.83
2018-06-02T15:34:57.253Z,32.26
2018-06-02T15:37:24.790Z,33.19
2018-06-02T15:39:52.367Z,33.75
2018-06-02T15:42:19.939Z,33.77
2018-06-02T15:44:47.478Z,33.35
2018-06-02T15:47:15.072Z,33.11
2018-06-02T15:49:42.628Z,33.43
2018-06-02T15:52:10.178Z,32.93
2018-06-02T15:54:37.746Z,32.85
2018-06-02T15:57:05.290Z,33.82
2018-06-02T15:59:32.841Z,33.79
2018-06-02T16:02:00.416Z,33.38
2018-06-02T16:04:27.978Z,34.15
2018-06-02T16:06:55.538Z,34.25
2018-06-02T16:09:23.108Z,35.12
2018-06-02T16:11:50.662Z,35.01
2018-06-02T16:14:18.217Z,35.49
2018-06-02T16:16:45.781Z,35.24
2018-06-02T16:19:13.322Z,35.65
2018-06-02T16:21:40.873Z,35.32
2018-06-02T16:24:08.455Z,35.07
2018-06-02T16:26:36.007Z,36.00
2018-06-02T16:29:03.557Z,35.57
2018-06-02T16:31:31.135Z,35.59
2018-06-02T16:33:58.682Z,36.25
2018-06-02T16:36:26.239Z,35.68
2018-06-02T16:38:53.858Z,36.01
2018-06-02T16:41:22.606Z,36.06
2018-06-02T16:43:50.154Z,36.38
2018-06-02T16:46:17.747Z,36.29
2018-06-02T16:48:45.369Z,36.40
2018-06-02T16:51:12.921Z,36.40
2018-06-02T16:53:40.504Z,36.67
2018-06-02T16:56:08.082Z,36.62
2018-06-02T16:58:35.629Z,36.73
2018-06-02T17:01:03.184Z,37.62
2018-06-02T17:03:30.755Z,37.85
2018-06-02T17:05:58.298Z,38.25
2018-06-02T17:08:25.841Z,38.78
2018-06-02T17:10:53.429Z,39.72
2018-06-02T17:13:20.982Z,40.20
2018-06-02T17:15:48.530Z,40.55
2018-06-02T17:18:16.141Z,41.33
2018-06-02T17:20:43.696Z,42.04
2018-06-02T17:23:11.257Z,44.40
2018-06-02T17:25:38.830Z,43.71
2018-06-02T17:28:06.390Z,46.78
2018-06-02T17:30:33.938Z,49.21
2018-06-02T17:33:01.507Z,50.71
2018-06-02T17:35:29.058Z,50.05
2018-06-02T17:37:56.615Z,53.92
2018-06-02T17:40:24.193Z,51.27
2018-06-02T17:42:51.734Z,55.87
2018-06-02T17:45:19.278Z,53.95
2018-06-02T17:47:46.872Z,55.66
2018-06-02T17:50:14.420Z,59.49
2018-06-02T17:52:41.970Z,57.56
2018-06-02T17:55:09.554Z,56.92
2018-06-02T17:57:37.094Z,56.88
2018-06-02T18:00:04.671Z,61.40
2018-06-02T18:02:32.256Z,60.60
2018-06-02T18:04:59.816Z,60.21
2018-06-02T18:07:27.425Z,58.28
2018-06-02T18:09:55.012Z,62.48
2018-06-02T18:12:22.563Z,56.28
2018-06-02T18:14:50.129Z,61.81
2018-06-02T18:17:17.725Z,58.14
2018-06-02T18:19:45.276Z,60.95
2018-06-02T18:22:12.835Z,61.41
2018-06-02T18:24:40.422Z,58.73
2018-06-02T18:27:07.979Z,66.65
2018-06-02T18:29:35.531Z,65.41
2018-06-02T18:32:03.198Z,65.58
2018-06-02T18:34:30.751Z,67.72
2018-06-02T18:36:58.298Z,69.01
2018-06-02T18:39:26.085Z,68.67
2018-06-02T18:41:54.348Z,67.08
2018-06-02T18:44:21.938Z,70.08
2018-06-02T18:46:49.521Z,69.72
2018-06-02T18:49:17.096Z,68.68
2018-06-02T18:51:44.646Z,67.21
2018-06-02T18:54:12.232Z,66.30
2018-06-02T18:56:39.787Z,66.40
2018-06-02T18:59:07.339Z,69.14
2018-06-02T19:01:34.926Z,68.67
2018-06-02T19:04:02.482Z,68.52
2018-06-02T19:06:30.041Z,66.43
2018-06-02T19:08:57.624Z,69.12
2018-06-02T19:11:25.191Z,64.43
2018-06-02T19:13:52.734Z,66.64
2018-06-02T19:16:20.315Z,62.03
2018-06-02T19:18:47.870Z,60.07
2018-06-02T19:21:15.434Z,58.26
2018-06-02T19:23:43.011Z,62.86
2018-06-02T19:26:10.562Z,59.98
2018-06-02T19:28:38.112Z,61.81
2018-06-02T19:31:05.686Z,60.90
2018-06-02T19:33:33.231Z,57.46
2018-06-02T19:36:00.784Z,56.94
2018-06-02T19:38:28.367Z,59.22
2018-06-02T19:40:55.935Z,53.98
2018-06-02T19:43:23.488Z,52.76
2018-06-02T19:45:51.088Z,56.22
2018-06-02T19:48:18.648Z,54.10
2018-06-02T19:50:46.200Z,62.37
2018-06-02T19:53:13.788Z,56.65
2018-06-02T19:55:41.342Z,60.74
2018-06-02T19:58:08.895Z,57.21
2018-06-02T20:00:36.472Z,60.78
2018-06-02T20:03:04.019Z,56.19
2018-06-02T20:05:31.572Z,54.39
2018-06-02T20:08:28.677Z,55.17
2018-06-02T20:10:57.481Z,56.88
2018-06-02T20:13:26.311Z,52.60
2018-06-02T20:15:55.083Z,52.08
2018-06-02T20:18:23.814Z,51.08
2018-06-02T20:20:52.587Z,50.68
2018-06-02T20:23:21.412Z,50.45
2018-06-02T20:25:50.129Z,51.19
2018-06-02T20:28:18.853Z,50.65
2018-06-02T20:30:47.628Z,50.54
2018-06-02T20:33:16.331Z,51.68
2018-06-02T20:35:45.080Z,52.01
2018-06-02T20:38:13.838Z,51.78
2018-06-02T20:40:42.579Z,50.78
2018-06-02T20:43:11.318Z,50.81
2018-06-02T20:45:40.079Z,51.87
2018-06-02T20:48:08.880Z,52.21
2018-06-02T20:50:37.684Z,51.63
2018-06-02T20:53:06.503Z,52.24
2018-06-02T20:55:35.205Z,53.34
2018-06-02T20:58:03.956Z,55.97
2018-06-02T21:00:32.670Z,53.76
2018-06-02T21:03:01.453Z,54.09
2018-06-02T21:05:30.258Z,57.14
2018-06-02T21:07:58.986Z,56.89
2018-06-02T21:10:27.694Z,62.20
2018-06-02T21:12:56.456Z,58.18
2018-06-02T21:15:25.167Z,57.66
2018-06-02T21:17:53.981Z,55.40
2018-06-02T21:20:22.787Z,55.75
2018-06-02T21:22:51.519Z,56.75
2018-06-02T21:25:20.248Z,56.43
2018-06-02T21:27:48.999Z,60.71
2018-06-02T21:30:17.730Z,54.93
2018-06-02T21:32:46.442Z,55.12
2018-06-02T21:35:15.276Z,54.99
2018-06-02T21:37:44.061Z,54.66
2018-06-02T21:40:12.801Z,54.14
2018-06-02T21:42:41.557Z,54.43
2018-06-02T21:45:10.282Z,53.91
2018-06-02T21:47:38.978Z,54.47
2018-06-02T21:50:07.709Z,54.54
2018-06-02T21:52:36.439Z,53.70
2018-06-02T21:55:05.173Z,54.23
2018-06-02T21:57:33.922Z,53.66
2018-06-02T22:00:02.657Z,53.56
2018-06-02T22:02:31.386Z,54.08
2018-06-02T22:05:00.253Z,54.24
2018-06-02T22:07:29.114Z,53.67
2018-06-02T22:09:57.909Z,54.02
2018-06-02T22:12:26.938Z,54.09
2018-06-02T22:14:55.753Z,54.43
2018-06-02T22:17:24.632Z,54.73
2018-06-02T22:19:53.497Z,54.97
2018-06-02T22:22:22.302Z,54.99
2018-06-02T22:24:51.100Z,55.14
2018-06-02T22:27:19.960Z,55.63
2018-06-02T22:29:48.721Z,55.65
2018-06-02T22:32:17.523Z,55.30
2018-06-02T22:34:46.421Z,55.85
2018-06-02T22:37:15.285Z,55.77
2018-06-02T22:39:44.080Z,56.30
2018-06-02T22:42:12.806Z,55.91
2018-06-02T22:44:41.598Z,56.25
2018-06-02T22:47:10.458Z,55.52
2018-06-02T22:49:39.344Z,55.43
2018-06-02T22:52:08.325Z,55.11
2018-06-02T22:54:37.482Z,55.38
2018-06-02T22:57:06.448Z,55.57
2018-06-02T22:59:35.318Z,56.13
2018-06-02T23:02:04.030Z,56.27
2018-06-02T23:04:32.879Z,55.51
2018-06-02T23:07:01.664Z,55.99
2018-06-02T23:09:30.371Z,56.22
2018-06-02T23:11:59.160Z,56.43
2018-06-02T23:14:27.909Z,56.04
2018-06-02T23:16:56.626Z,57.17
2018-06-02T23:19:25.371Z,57.35
2018-06-02T23:21:54.110Z,57.10
2018-06-02T23:24:22.803Z,57.66
2018-06-02T23:26:51.538Z,57.35
2018-06-02T23:29:21.087Z,57.91
2018-06-02T23:31:49.791Z,59.06
2018-06-02T23:34:18.517Z,60.10
2018-06-02T23:36:47.213Z,60.26
2018-06-02T23:39:15.927Z,61.06
2018-06-02T23:41:44.674Z,62.35
2018-06-02T23:44:13.378Z,62.37
2018-06-02T23:46:42.110Z,63.37
2018-06-02T23:49:11.048Z,63.22
2018-06-02T23:51:39.814Z,64.62
2018-06-02T23:54:08.514Z,64.47
2018-06-02T23:56:37.258Z,65.33
2018-06-02T23:59:05.965Z,65.64
